Milledgeville, GA (31059)

04:56 PM EDT del 29 Agosto 2015 (GMT -0400)
Baldwin County | | Change Station
CLOSE
Current Station
Aeroporto
Location: Milledgeville,
Altitudine: 384 ft
Stazioni meteo nelle vicinanze

Alt. 384 ft 33.15 °N, 83.24 °W | Updated 21 minutes ago

Parzialmente nuvoloso
Parzialmente nuvoloso
81 °F
Sembra 83 °F
N
4
Vento Variabile Vento da Est

Oggi
Massima -- | Minima -- °F
--% Possibilità di precip.
Ieri
Massima -- | Minima -- °F
Precip. -- in
7:05 AM 8:02 PM
Luna piena, 100% visible
Pressione 30.12 in
Visibilità 10.0 miglia
Nuvole Nubi sparse 12000 ft
Indice di calore 83 °F
Punto di rugiada 66 °F
Umidità 61%
Piovosità 0.00 in
Spessore del manto nevoso Non disponibile.
Raggi UV 5 fuori da 12
Polline 7.50 fuori da 12
Qualità dell'aria Non disponibile.
Flu Activity Non disponibile.
METAR KMLJ 292035Z AUTO 08003KT 10SM SCT120 27/19 A3012 RMK AO2
Pressione 30.12 in
Visibilità 10.0 miglia
Nuvole Nubi sparse 12000 ft
Indice di calore 83 °F
Punto di rugiada 66 °F
Umidità 61%
Piovosità 0.00 in
Spessore del manto nevoso Non disponibile.
Raggi UV 5 fuori da 12
Polline 7.50 fuori da 12
Qualità dell'aria Non disponibile.
Flu Activity Non disponibile.
METAR KMLJ 292035Z AUTO 08003KT 10SM SCT120 27/19 A3012 RMK AO2

10-Day Weather Forecast

×

Almanac

Astronomia

Aug. 29, 2015 Alba Tramonto
Ora attuale
Crepuscolo civile
Crepuscolo nautico
Crepuscolo astronomico
Luna
Estensione della luce visibile
Lunghezza del giorno
Tomorrow will be .
, % of the Moon is Illuminated

Gli estremi di oggi

State Highs State Lows

Community

WunderPhotos

Upload Photos

1,850,793 foto caricate!

WunderBlogs® & News

Nearby

Qualità dell'aria

  Qualità dell'aria Indice AQ Inquinante
Not available.

Profondità neve

Stazione Profondità Altitudine

Attività sismica

Città  Distanza Mag. Data & Ora
Minimo Magnitudo Mostrato è 2.5.

Temperature delle acque costiere

Località Temperatura

Stations

Stazioni meteo nelle vicinanze

Ubicazione della stazione Temp. Raffreddamento del vento Punto di rugiada Umidità Vento Precip. Alt. Aggiornato Tipo